Aviation Digital Data Service (ADDS)

Output produced by METARs form (1500 UTC 15 October 2018)
found at http://aviationweather.gov/metar/data/
 
KMLU 151453Z 05004KT 10SM HZ BKN014 BKN020 BKN031 24/22 A3008 RMK AO2 SLP183 T02440217 51012
KMLU 151449Z 03004KT 10SM HZ BKN014 BKN020 OVC031 24/22 A3007 RMK AO2
KMLU 151145Z 1512/1612 06003KT P6SM SCT005 
     TEMPO 1512/1516 1SM BR BKN005 
     FM151600 34004KT P6SM VCSH OVC015 
     FM151800 36010G16KT 5SM BR VCSH BKN008 OVC015 
     FM160100 02010KT P6SM VCSH OVC007 
     FM161000 03010KT 4SM -RA BR OVC005